sensor_id;sensor_type;location;lat;lon;timestamp;pressure;altitude;pressure_sealevel;temperature;humidity
62031;BME280;62035;52.094;5.112;2023-05-23T00:00:18;102018.97;;;15.84;100.00
62031;BME280;62035;52.094;5.112;2023-05-23T00:02:46;102028.09;;;15.74;100.00
62031;BME280;62035;52.094;5.112;2023-05-23T00:05:14;102022.72;;;15.74;100.00
62031;BME280;62035;52.094;5.112;2023-05-23T00:07:44;102027.25;;;15.91;100.00
62031;BME280;62035;52.094;5.112;2023-05-23T00:10:13;102030.47;;;15.94;100.00
62031;BME280;62035;52.094;5.112;2023-05-23T00:12:40;102024.41;;;15.92;100.00
62031;BME280;62035;52.094;5.112;2023-05-23T00:15:09;102037.16;;;15.90;100.00
62031;BME280;62035;52.094;5.112;2023-05-23T00:17:37;102035.84;;;15.94;100.00
62031;BME280;62035;52.094;5.112;2023-05-23T00:20:05;102035.00;;;15.76;100.00
62031;BME280;62035;52.094;5.112;2023-05-23T00:22:36;102044.50;;;15.88;100.00
62031;BME280;62035;52.094;5.112;2023-05-23T00:25:08;102032.84;;;15.80;100.00
62031;BME280;62035;52.094;5.112;2023-05-23T00:27:37;102038.75;;;15.83;100.00
62031;BME280;62035;52.094;5.112;2023-05-23T00:30:06;102040.97;;;15.70;100.00
62031;BME280;62035;52.094;5.112;2023-05-23T00:32:34;102043.97;;;15.67;100.00
62031;BME280;62035;52.094;5.112;2023-05-23T00:35:02;102050.94;;;15.60;100.00
62031;BME280;62035;52.094;5.112;2023-05-23T00:37:30;102050.19;;;15.67;100.00
62031;BME280;62035;52.094;5.112;2023-05-23T00:39:59;102050.03;;;15.69;100.00
62031;BME280;62035;52.094;5.112;2023-05-23T00:42:26;102047.09;;;15.62;100.00
62031;BME280;62035;52.094;5.112;2023-05-23T00:44:55;102056.00;;;15.63;100.00
62031;BME280;62035;52.094;5.112;2023-05-23T00:47:23;102047.84;;;15.55;100.00
62031;BME280;62035;52.094;5.112;2023-05-23T00:49:51;102056.63;;;15.57;100.00
62031;BME280;62035;52.094;5.112;2023-05-23T00:52:18;102056.63;;;15.57;100.00
62031;BME280;62035;52.094;5.112;2023-05-23T00:54:46;102073.59;;;15.48;100.00
62031;BME280;62035;52.094;5.112;2023-05-23T00:57:14;102057.03;;;15.34;100.00
62031;BME280;62035;52.094;5.112;2023-05-23T00:59:42;102062.38;;;15.17;100.00
62031;BME280;62035;52.094;5.112;2023-05-23T01:02:13;102071.16;;;15.09;100.00
62031;BME280;62035;52.094;5.112;2023-05-23T01:04:40;102072.75;;;15.20;100.00
62031;BME280;62035;52.094;5.112;2023-05-23T01:07:10;102068.78;;;15.24;100.00
62031;BME280;62035;52.094;5.112;2023-05-23T01:09:38;102068.34;;;15.28;100.00
62031;BME280;62035;52.094;5.112;2023-05-23T01:12:16;102067.78;;;15.25;100.00
62031;BME280;62035;52.094;5.112;2023-05-23T01:15:01;102069.47;;;15.08;100.00
62031;BME280;62035;52.094;5.112;2023-05-23T01:17:42;102074.00;;;14.98;100.00
62031;BME280;62035;52.094;5.112;2023-05-23T01:20:17;102071.34;;;14.98;100.00
62031;BME280;62035;52.094;5.112;2023-05-23T01:22:58;102074.16;;;14.96;100.00
62031;BME280;62035;52.094;5.112;2023-05-23T01:25:46;102067.56;;;15.18;100.00
62031;BME280;62035;52.094;5.112;2023-05-23T01:28:28;102065.75;;;15.19;100.00
62031;BME280;62035;52.094;5.112;2023-05-23T01:31:01;102070.56;;;15.15;100.00
62031;BME280;62035;52.094;5.112;2023-05-23T01:33:31;102064.78;;;15.10;100.00
62031;BME280;62035;52.094;5.112;2023-05-23T01:36:00;102070.41;;;15.17;100.00
62031;BME280;62035;52.094;5.112;2023-05-23T01:38:29;102069.19;;;15.01;100.00
62031;BME280;62035;52.094;5.112;2023-05-23T01:40:56;102068.63;;;15.08;100.00
62031;BME280;62035;52.094;5.112;2023-05-23T01:43:26;102078.13;;;14.92;100.00
62031;BME280;62035;52.094;5.112;2023-05-23T01:45:55;102070.88;;;15.02;100.00
62031;BME280;62035;52.094;5.112;2023-05-23T01:48:24;102074.16;;;15.24;100.00
62031;BME280;62035;52.094;5.112;2023-05-23T01:50:55;102078.19;;;15.10;100.00
62031;BME280;62035;52.094;5.112;2023-05-23T01:53:23;102080.63;;;15.04;100.00
62031;BME280;62035;52.094;5.112;2023-05-23T01:55:53;102080.97;;;15.18;100.00
62031;BME280;62035;52.094;5.112;2023-05-23T01:58:21;102082.97;;;15.16;100.00
62031;BME280;62035;52.094;5.112;2023-05-23T02:00:50;102082.69;;;15.19;100.00
62031;BME280;62035;52.094;5.112;2023-05-23T02:03:18;102083.25;;;15.13;100.00
62031;BME280;62035;52.094;5.112;2023-05-23T02:05:45;102083.41;;;15.12;100.00
62031;BME280;62035;52.094;5.112;2023-05-23T02:08:13;102087.50;;;15.16;100.00
62031;BME280;62035;52.094;5.112;2023-05-23T02:10:40;102080.97;;;15.18;100.00
62031;BME280;62035;52.094;5.112;2023-05-23T02:13:08;102075.00;;;15.24;100.00
62031;BME280;62035;52.094;5.112;2023-05-23T02:15:36;102071.31;;;15.25;100.00
62031;BME280;62035;52.094;5.112;2023-05-23T02:18:05;102071.25;;;15.17;100.00
62031;BME280;62035;52.094;5.112;2023-05-23T02:20:32;102079.53;;;15.24;100.00
62031;BME280;62035;52.094;5.112;2023-05-23T02:23:00;102077.53;;;15.26;100.00
62031;BME280;62035;52.094;5.112;2023-05-23T02:25:28;102070.69;;;15.41;100.00
62031;BME280;62035;52.094;5.112;2023-05-23T02:27:55;102075.47;;;15.65;100.00
62031;BME280;62035;52.094;5.112;2023-05-23T02:30:23;102074.72;;;15.73;100.00
62031;BME280;62035;52.094;5.112;2023-05-23T02:32:50;102072.19;;;15.71;100.00
62031;BME280;62035;52.094;5.112;2023-05-23T02:35:20;102078.09;;;15.75;100.00
62031;BME280;62035;52.094;5.112;2023-05-23T02:37:48;102088.97;;;15.73;100.00
62031;BME280;62035;52.094;5.112;2023-05-23T02:40:16;102098.72;;;15.56;100.00
62031;BME280;62035;52.094;5.112;2023-05-23T02:42:43;102095.97;;;15.39;100.00
62031;BME280;62035;52.094;5.112;2023-05-23T02:45:11;102102.75;;;15.33;100.00
62031;BME280;62035;52.094;5.112;2023-05-23T02:47:39;102099.84;;;15.26;100.00
62031;BME280;62035;52.094;5.112;2023-05-23T02:50:07;102103.47;;;15.08;100.00
62031;BME280;62035;52.094;5.112;2023-05-23T02:52:36;102103.31;;;15.09;100.00
62031;BME280;62035;52.094;5.112;2023-05-23T02:55:05;102113.59;;;15.14;100.00
62031;BME280;62035;52.094;5.112;2023-05-23T02:57:33;102112.41;;;15.26;100.00
62031;BME280;62035;52.094;5.112;2023-05-23T03:00:00;102110.47;;;15.18;100.00
62031;BME280;62035;52.094;5.112;2023-05-23T03:02:28;102120.66;;;15.42;100.00
62031;BME280;62035;52.094;5.112;2023-05-23T03:04:56;102112.59;;;15.42;100.00
62031;BME280;62035;52.094;5.112;2023-05-23T03:07:24;102109.88;;;15.52;100.00
62031;BME280;62035;52.094;5.112;2023-05-23T03:09:53;102106.50;;;15.50;100.00
62031;BME280;62035;52.094;5.112;2023-05-23T03:12:21;102106.81;;;15.19;100.00
62031;BME280;62035;52.094;5.112;2023-05-23T03:14:48;102120.41;;;15.08;100.00
62031;BME280;62035;52.094;5.112;2023-05-23T03:17:16;102109.50;;;15.19;100.00
62031;BME280;62035;52.094;5.112;2023-05-23T03:19:43;102110.25;;;15.29;100.00
62031;BME280;62035;52.094;5.112;2023-05-23T03:22:11;102108.38;;;15.12;100.00
62031;BME280;62035;52.094;5.112;2023-05-23T03:24:39;102111.06;;;15.12;100.00
62031;BME280;62035;52.094;5.112;2023-05-23T03:27:07;102113.75;;;15.12;100.00
62031;BME280;62035;52.094;5.112;2023-05-23T03:29:35;102115.75;;;15.10;100.00
62031;BME280;62035;52.094;5.112;2023-05-23T03:32:03;102112.31;;;15.18;100.00
62031;BME280;62035;52.094;5.112;2023-05-23T03:34:31;102123.84;;;14.81;100.00
62031;BME280;62035;52.094;5.112;2023-05-23T03:36:59;102114.41;;;14.87;100.00
62031;BME280;62035;52.094;5.112;2023-05-23T03:39:26;102119.09;;;14.75;100.00
62031;BME280;62035;52.094;5.112;2023-05-23T03:41:54;102125.47;;;14.74;100.00
62031;BME280;62035;52.094;5.112;2023-05-23T03:44:23;102119.81;;;14.67;100.00
62031;BME280;62035;52.094;5.112;2023-05-23T03:46:51;102124.06;;;14.70;100.00
62031;BME280;62035;52.094;5.112;2023-05-23T03:49:18;102125.75;;;14.61;100.00
62031;BME280;62035;52.094;5.112;2023-05-23T03:51:46;102121.41;;;14.51;100.00
62031;BME280;62035;52.094;5.112;2023-05-23T03:54:14;102129.59;;;14.49;100.00
62031;BME280;62035;52.094;5.112;2023-05-23T03:56:42;102130.69;;;14.56;100.00
62031;BME280;62035;52.094;5.112;2023-05-23T03:59:10;102124.50;;;14.65;100.00
62031;BME280;62035;52.094;5.112;2023-05-23T04:01:39;102139.84;;;14.63;100.00
62031;BME280;62035;52.094;5.112;2023-05-23T04:04:06;102144.94;;;14.66;100.00
62031;BME280;62035;52.094;5.112;2023-05-23T04:06:34;102138.09;;;14.82;100.00
62031;BME280;62035;52.094;5.112;2023-05-23T04:09:02;102143.50;;;14.72;100.00
62031;BME280;62035;52.094;5.112;2023-05-23T04:11:31;102138.72;;;14.66;100.00
62031;BME280;62035;52.094;5.112;2023-05-23T04:13:58;102145.22;;;14.54;100.00
62031;BME280;62035;52.094;5.112;2023-05-23T04:16:27;102160.31;;;14.35;100.00
62031;BME280;62035;52.094;5.112;2023-05-23T04:18:59;102155.25;;;14.42;100.00
62031;BME280;62035;52.094;5.112;2023-05-23T04:21:27;102160.88;;;14.49;100.00
62031;BME280;62035;52.094;5.112;2023-05-23T04:23:55;102166.81;;;14.52;100.00
62031;BME280;62035;52.094;5.112;2023-05-23T04:26:22;102165.25;;;14.59;100.00
62031;BME280;62035;52.094;5.112;2023-05-23T04:28:50;102157.06;;;14.51;100.00
62031;BME280;62035;52.094;5.112;2023-05-23T04:31:19;102175.25;;;14.57;100.00
62031;BME280;62035;52.094;5.112;2023-05-23T04:33:47;102157.91;;;14.13;100.00
62031;BME280;62035;52.094;5.112;2023-05-23T04:36:17;102170.31;;;13.95;100.00
62031;BME280;62035;52.094;5.112;2023-05-23T04:38:44;102174.66;;;14.06;100.00
62031;BME280;62035;52.094;5.112;2023-05-23T04:41:12;102181.44;;;14.10;100.00
62031;BME280;62035;52.094;5.112;2023-05-23T04:43:41;102173.28;;;14.21;100.00
62031;BME280;62035;52.094;5.112;2023-05-23T04:46:09;102178.47;;;14.13;100.00
62031;BME280;62035;52.094;5.112;2023-05-23T04:48:38;102165.50;;;14.08;100.00
62031;BME280;62035;52.094;5.112;2023-05-23T04:51:07;102172.16;;;14.33;100.00
62031;BME280;62035;52.094;5.112;2023-05-23T04:53:37;102180.75;;;14.27;100.00
62031;BME280;62035;52.094;5.112;2023-05-23T04:56:06;102206.91;;;14.04;100.00
62031;BME280;62035;52.094;5.112;2023-05-23T04:58:34;102205.22;;;13.93;100.00
62031;BME280;62035;52.094;5.112;2023-05-23T05:01:02;102192.25;;;13.89;100.00
62031;BME280;62035;52.094;5.112;2023-05-23T05:03:31;102205.75;;;13.78;100.00
62031;BME280;62035;52.094;5.112;2023-05-23T05:05:59;102222.84;;;13.96;100.00
62031;BME280;62035;52.094;5.112;2023-05-23T05:08:27;102213.69;;;14.08;100.00
62031;BME280;62035;52.094;5.112;2023-05-23T05:10:56;102222.16;;;14.13;100.00
62031;BME280;62035;52.094;5.112;2023-05-23T05:13:23;102212.72;;;14.19;100.00
62031;BME280;62035;52.094;5.112;2023-05-23T05:15:51;102215.69;;;14.25;100.00
62031;BME280;62035;52.094;5.112;2023-05-23T05:18:18;102229.81;;;14.47;100.00
62031;BME280;62035;52.094;5.112;2023-05-23T05:20:46;102224.72;;;14.34;100.00
62031;BME280;62035;52.094;5.112;2023-05-23T05:23:14;102254.19;;;14.34;100.00
62031;BME280;62035;52.094;5.112;2023-05-23T05:25:41;102247.09;;;14.14;100.00
62031;BME280;62035;52.094;5.112;2023-05-23T05:28:10;102243.00;;;14.10;100.00
62031;BME280;62035;52.094;5.112;2023-05-23T05:30:38;102247.41;;;14.20;100.00
62031;BME280;62035;52.094;5.112;2023-05-23T05:33:05;102241.72;;;14.04;100.00
62031;BME280;62035;52.094;5.112;2023-05-23T05:35:34;102246.56;;;14.20;100.00
62031;BME280;62035;52.094;5.112;2023-05-23T05:38:03;102238.78;;;14.17;100.00
62031;BME280;62035;52.094;5.112;2023-05-23T05:40:31;102245.88;;;14.37;100.00
62031;BME280;62035;52.094;5.112;2023-05-23T05:42:58;102244.63;;;14.51;100.00
62031;BME280;62035;52.094;5.112;2023-05-23T05:45:28;102256.03;;;14.33;100.00
62031;BME280;62035;52.094;5.112;2023-05-23T05:47:55;102247.09;;;14.14;100.00
62031;BME280;62035;52.094;5.112;2023-05-23T05:50:23;102257.28;;;14.29;100.00
62031;BME280;62035;52.094;5.112;2023-05-23T05:52:51;102258.97;;;14.30;100.00
62031;BME280;62035;52.094;5.112;2023-05-23T05:55:18;102262.78;;;14.28;100.00
62031;BME280;62035;52.094;5.112;2023-05-23T05:57:46;102266.31;;;14.38;100.00
62031;BME280;62035;52.094;5.112;2023-05-23T06:00:14;102266.44;;;14.27;100.00
62031;BME280;62035;52.094;5.112;2023-05-23T06:02:45;102275.56;;;14.15;100.00
62031;BME280;62035;52.094;5.112;2023-05-23T06:05:13;102284.44;;;14.15;100.00
62031;BME280;62035;52.094;5.112;2023-05-23T06:07:42;102274.25;;;13.90;100.00
62031;BME280;62035;52.094;5.112;2023-05-23T06:10:10;102285.97;;;13.98;100.00
62031;BME280;62035;52.094;5.112;2023-05-23T06:12:39;102287.25;;;14.14;100.00
62031;BME280;62035;52.094;5.112;2023-05-23T06:15:07;102283.91;;;14.31;100.00
62031;BME280;62035;52.094;5.112;2023-05-23T06:17:35;102296.56;;;14.19;100.00
62031;BME280;62035;52.094;5.112;2023-05-23T06:20:06;102282.34;;;14.19;100.00
62031;BME280;62035;52.094;5.112;2023-05-23T06:22:34;102286.59;;;14.31;100.00
62031;BME280;62035;52.094;5.112;2023-05-23T06:25:03;102292.94;;;14.30;100.00
62031;BME280;62035;52.094;5.112;2023-05-23T06:27:32;102288.84;;;14.26;100.00
62031;BME280;62035;52.094;5.112;2023-05-23T06:30:00;102291.38;;;14.27;100.00
62031;BME280;62035;52.094;5.112;2023-05-23T06:32:28;102290.00;;;14.33;100.00
62031;BME280;62035;52.094;5.112;2023-05-23T06:34:55;102285.63;;;14.32;100.00
62031;BME280;62035;52.094;5.112;2023-05-23T06:37:24;102293.38;;;14.35;100.00
62031;BME280;62035;52.094;5.112;2023-05-23T06:39:52;102285.63;;;14.42;100.00
62031;BME280;62035;52.094;5.112;2023-05-23T06:42:19;102285.38;;;14.45;100.00
62031;BME280;62035;52.094;5.112;2023-05-23T06:44:47;102283.13;;;14.59;100.00
62031;BME280;62035;52.094;5.112;2023-05-23T06:47:15;102284.81;;;14.60;100.00
62031;BME280;62035;52.094;5.112;2023-05-23T06:49:42;102292.44;;;14.55;100.00
62031;BME280;62035;52.094;5.112;2023-05-23T06:52:10;102292.13;;;14.49;100.00
62031;BME280;62035;52.094;5.112;2023-05-23T06:54:39;102299.75;;;14.53;100.00
62031;BME280;62035;52.094;5.112;2023-05-23T06:57:07;102291.06;;;14.11;100.00
62031;BME280;62035;52.094;5.112;2023-05-23T06:59:34;102305.56;;;14.09;100.00
62031;BME280;62035;52.094;5.112;2023-05-23T07:02:02;102306.75;;;13.85;100.00
62031;BME280;62035;52.094;5.112;2023-05-23T07:04:29;102316.88;;;13.82;100.00
62031;BME280;62035;52.094;5.112;2023-05-23T07:06:57;102314.88;;;13.74;100.00
62031;BME280;62035;52.094;5.112;2023-05-23T07:09:25;102314.19;;;13.82;100.00
62031;BME280;62035;52.094;5.112;2023-05-23T07:11:53;102309.63;;;14.03;100.00
62031;BME280;62035;52.094;5.112;2023-05-23T07:14:21;102309.78;;;14.11;100.00
62031;BME280;62035;52.094;5.112;2023-05-23T07:16:49;102321.81;;;14.26;100.00
62031;BME280;62035;52.094;5.112;2023-05-23T07:19:16;102312.53;;;14.30;100.00
62031;BME280;62035;52.094;5.112;2023-05-23T07:21:44;102322.41;;;14.40;100.00
62031;BME280;62035;52.094;5.112;2023-05-23T07:24:11;102320.66;;;14.79;100.00
62031;BME280;62035;52.094;5.112;2023-05-23T07:26:39;102320.78;;;14.87;100.00
62031;BME280;62035;52.094;5.112;2023-05-23T07:29:08;102319.53;;;14.72;100.00
62031;BME280;62035;52.094;5.112;2023-05-23T07:31:35;102317.56;;;14.74;100.00
62031;BME280;62035;52.094;5.112;2023-05-23T07:34:03;102329.38;;;14.90;100.00
62031;BME280;62035;52.094;5.112;2023-05-23T07:36:31;102323.19;;;14.99;100.00
62031;BME280;62035;52.094;5.112;2023-05-23T07:39:00;102333.16;;;15.36;100.00
62031;BME280;62035;52.094;5.112;2023-05-23T07:41:28;102314.72;;;15.14;100.00
62031;BME280;62035;52.094;5.112;2023-05-23T07:43:55;102320.28;;;15.59;100.00
62031;BME280;62035;52.094;5.112;2023-05-23T07:46:24;102317.88;;;15.46;100.00
62031;BME280;62035;52.094;5.112;2023-05-23T07:48:52;102331.03;;;15.40;100.00
62031;BME280;62035;52.094;5.112;2023-05-23T07:51:20;102324.75;;;15.68;100.00
62031;BME280;62035;52.094;5.112;2023-05-23T07:53:47;102321.50;;;15.74;100.00
62031;BME280;62035;52.094;5.112;2023-05-23T07:56:15;102331.16;;;15.48;100.00
62031;BME280;62035;52.094;5.112;2023-05-23T07:58:43;102329.25;;;15.77;100.00
62031;BME280;62035;52.094;5.112;2023-05-23T08:01:10;102326.41;;;15.88;100.00
62031;BME280;62035;52.094;5.112;2023-05-23T08:03:39;102329.19;;;16.42;100.00
62031;BME280;62035;52.094;5.112;2023-05-23T08:06:07;102334.97;;;16.74;100.00
62031;BME280;62035;52.094;5.112;2023-05-23T08:08:35;102340.09;;;16.67;100.00
62031;BME280;62035;52.094;5.112;2023-05-23T08:11:03;102334.88;;;16.66;100.00
62031;BME280;62035;52.094;5.112;2023-05-23T08:13:30;102342.97;;;16.56;100.00
62031;BME280;62035;52.094;5.112;2023-05-23T08:15:58;102345.63;;;16.84;100.00
62031;BME280;62035;52.094;5.112;2023-05-23T08:18:26;102344.56;;;16.77;100.00
62031;BME280;62035;52.094;5.112;2023-05-23T08:20:57;102342.47;;;17.06;100.00
62031;BME280;62035;52.094;5.112;2023-05-23T08:23:24;102341.78;;;17.04;100.00
62031;BME280;62035;52.094;5.112;2023-05-23T08:25:53;102347.72;;;17.08;100.00
62031;BME280;62035;52.094;5.112;2023-05-23T08:28:22;102350.78;;;16.95;100.00
62031;BME280;62035;52.094;5.112;2023-05-23T08:30:49;102353.13;;;17.33;100.00
62031;BME280;62035;52.094;5.112;2023-05-23T08:33:18;102352.50;;;17.40;100.00
62031;BME280;62035;52.094;5.112;2023-05-23T08:35:46;102345.75;;;17.87;100.00
62031;BME280;62035;52.094;5.112;2023-05-23T08:38:15;102343.66;;;17.73;100.00
62031;BME280;62035;52.094;5.112;2023-05-23T08:40:49;102355.66;;;17.61;100.00
62031;BME280;62035;52.094;5.112;2023-05-23T08:43:18;102339.09;;;17.74;100.00
62031;BME280;62035;52.094;5.112;2023-05-23T08:45:46;102358.75;;;17.66;100.00
62031;BME280;62035;52.094;5.112;2023-05-23T08:48:18;102365.00;;;17.05;100.00
62031;BME280;62035;52.094;5.112;2023-05-23T08:50:49;102362.16;;;17.07;100.00
62031;BME280;62035;52.094;5.112;2023-05-23T08:53:20;102369.84;;;16.56;100.00
62031;BME280;62035;52.094;5.112;2023-05-23T08:55:53;102374.44;;;16.46;100.00
62031;BME280;62035;52.094;5.112;2023-05-23T08:58:24;102350.69;;;15.96;100.00
62031;BME280;62035;52.094;5.112;2023-05-23T09:00:54;102373.31;;;15.84;100.00
62031;BME280;62035;52.094;5.112;2023-05-23T09:03:23;102373.59;;;16.18;100.00
62031;BME280;62035;52.094;5.112;2023-05-23T09:05:52;102370.69;;;16.66;100.00
62031;BME280;62035;52.094;5.112;2023-05-23T09:08:22;102367.69;;;17.05;100.00
62031;BME280;62035;52.094;5.112;2023-05-23T09:10:50;102361.78;;;17.45;100.00
62031;BME280;62035;52.094;5.112;2023-05-23T09:13:18;102369.16;;;17.43;100.00
62031;BME280;62035;52.094;5.112;2023-05-23T09:15:56;102380.97;;;17.68;100.00
62031;BME280;62035;52.094;5.112;2023-05-23T09:18:32;102392.44;;;17.70;100.00
62031;BME280;62035;52.094;5.112;2023-05-23T09:21:02;102392.97;;;17.74;100.00
62031;BME280;62035;52.094;5.112;2023-05-23T09:23:31;102394.03;;;17.81;100.00
62031;BME280;62035;52.094;5.112;2023-05-23T09:26:01;102392.13;;;18.41;100.00
62031;BME280;62035;52.094;5.112;2023-05-23T09:28:31;102383.91;;;18.51;100.00
62031;BME280;62035;52.094;5.112;2023-05-23T09:31:00;102394.34;;;18.54;100.00
62031;BME280;62035;52.094;5.112;2023-05-23T09:33:33;102399.56;;;18.47;100.00
62031;BME280;62035;52.094;5.112;2023-05-23T09:36:03;102399.00;;;18.70;100.00
62031;BME280;62035;52.094;5.112;2023-05-23T09:38:36;102392.59;;;18.87;100.00
62031;BME280;62035;52.094;5.112;2023-05-23T09:41:05;102383.41;;;18.55;100.00
62031;BME280;62035;52.094;5.112;2023-05-23T09:43:33;102395.00;;;18.48;100.00
62031;BME280;62035;52.094;5.112;2023-05-23T09:46:06;102399.47;;;18.23;100.00
62031;BME280;62035;52.094;5.112;2023-05-23T09:48:34;102392.09;;;18.33;100.00
62031;BME280;62035;52.094;5.112;2023-05-23T09:51:08;102397.31;;;18.85;100.00
62031;BME280;62035;52.094;5.112;2023-05-23T09:53:37;102400.56;;;19.21;100.00
62031;BME280;62035;52.094;5.112;2023-05-23T09:56:06;102399.31;;;18.24;100.00
62031;BME280;62035;52.094;5.112;2023-05-23T09:58:38;102401.03;;;18.42;100.00
62031;BME280;62035;52.094;5.112;2023-05-23T10:01:10;102399.22;;;19.01;100.00
62031;BME280;62035;52.094;5.112;2023-05-23T10:03:44;102404.25;;;18.37;100.00
62031;BME280;62035;52.094;5.112;2023-05-23T10:06:18;102397.31;;;18.69;100.00
62031;BME280;62035;52.094;5.112;2023-05-23T10:08:56;102407.75;;;18.80;100.00
62031;BME280;62035;52.094;5.112;2023-05-23T10:14:58;102410.69;;;19.27;100.00
62031;BME280;62035;52.094;5.112;2023-05-23T10:17:33;102403.94;;;19.07;100.00
62031;BME280;62035;52.094;5.112;2023-05-23T10:20:09;102409.34;;;19.39;100.00
62031;BME280;62035;52.094;5.112;2023-05-23T10:22:38;102422.78;;;18.74;100.00
62031;BME280;62035;52.094;5.112;2023-05-23T10:25:09;102422.28;;;18.45;100.00
62031;BME280;62035;52.094;5.112;2023-05-23T10:27:37;102423.44;;;18.34;100.00
62031;BME280;62035;52.094;5.112;2023-05-23T10:30:07;102415.03;;;18.45;100.00
62031;BME280;62035;52.094;5.112;2023-05-23T10:32:37;102421.22;;;18.63;100.00
62031;BME280;62035;52.094;5.112;2023-05-23T10:35:11;102422.63;;;18.84;100.00
62031;BME280;62035;52.094;5.112;2023-05-23T10:37:48;102433.09;;;18.95;100.00
62031;BME280;62035;52.094;5.112;2023-05-23T10:40:33;102428.19;;;18.74;100.00
62031;BME280;62035;52.094;5.112;2023-05-23T10:43:15;102433.72;;;18.81;100.00
62031;BME280;62035;52.094;5.112;2023-05-23T10:45:50;102432.94;;;18.96;100.00
62031;BME280;62035;52.094;5.112;2023-05-23T10:48:22;102427.31;;;18.82;100.00
62031;BME280;62035;52.094;5.112;2023-05-23T10:51:04;102431.56;;;18.92;100.00
62031;BME280;62035;52.094;5.112;2023-05-23T10:53:35;102438.81;;;18.76;100.00
62031;BME280;62035;52.094;5.112;2023-05-23T10:56:06;102439.28;;;18.71;100.00
62031;BME280;62035;52.094;5.112;2023-05-23T10:58:36;102426.84;;;18.78;100.00
62031;BME280;62035;52.094;5.112;2023-05-23T11:01:06;102428.47;;;18.63;100.00
62031;BME280;62035;52.094;5.112;2023-05-23T11:03:36;102430.88;;;18.74;100.00
62031;BME280;62035;52.094;5.112;2023-05-23T11:06:28;102433.78;;;18.97;100.00
62031;BME280;62035;52.094;5.112;2023-05-23T11:09:03;102430.06;;;18.90;100.00
62031;BME280;62035;52.094;5.112;2023-05-23T11:11:52;102434.91;;;18.36;100.00
62031;BME280;62035;52.094;5.112;2023-05-23T11:14:34;102436.00;;;18.59;100.00
62031;BME280;62035;52.094;5.112;2023-05-23T11:17:30;102430.22;;;18.46;100.00
62031;BME280;62035;52.094;5.112;2023-05-23T11:20:02;102439.88;;;18.57;100.00
62031;BME280;62035;52.094;5.112;2023-05-23T11:22:33;102432.94;;;18.96;100.00
62031;BME280;62035;52.094;5.112;2023-05-23T11:25:06;102430.25;;;18.96;100.00
62031;BME280;62035;52.094;5.112;2023-05-23T11:27:37;102440.41;;;19.35;100.00
62031;BME280;62035;52.094;5.112;2023-05-23T11:30:08;102423.53;;;19.90;100.00
62031;BME280;62035;52.094;5.112;2023-05-23T11:32:39;102421.78;;;20.05;100.00
62031;BME280;62035;52.094;5.112;2023-05-23T11:35:09;102423.69;;;19.80;100.00
62031;BME280;62035;52.094;5.112;2023-05-23T11:37:38;102425.97;;;20.16;100.00
62031;BME280;62035;52.094;5.112;2023-05-23T11:40:26;102442.59;;;19.88;100.00
62031;BME280;62035;52.094;5.112;2023-05-23T11:42:57;102441.78;;;19.63;100.00
62031;BME280;62035;52.094;5.112;2023-05-23T11:45:25;102420.31;;;19.29;100.00
62031;BME280;62035;52.094;5.112;2023-05-23T11:47:53;102423.63;;;20.13;100.00
62031;BME280;62035;52.094;5.112;2023-05-23T11:50:21;102437.94;;;20.29;99.41
62031;BME280;62035;52.094;5.112;2023-05-23T11:52:53;102437.72;;;19.68;100.00
62031;BME280;62035;52.094;5.112;2023-05-23T11:55:21;102442.41;;;19.33;100.00
62031;BME280;62035;52.094;5.112;2023-05-23T11:57:50;102430.38;;;18.87;100.00
62031;BME280;62035;52.094;5.112;2023-05-23T12:00:19;102438.78;;;18.68;100.00
62031;BME280;62035;52.094;5.112;2023-05-23T12:02:47;102437.69;;;19.03;100.00
62031;BME280;62035;52.094;5.112;2023-05-23T12:05:15;102446.13;;;19.24;100.00
62031;BME280;62035;52.094;5.112;2023-05-23T12:07:43;102437.00;;;19.09;100.00
62031;BME280;62035;52.094;5.112;2023-05-23T12:10:13;102453.97;;;18.77;100.00
62031;BME280;62035;52.094;5.112;2023-05-23T12:12:43;102456.69;;;18.93;100.00
62031;BME280;62035;52.094;5.112;2023-05-23T12:15:11;102438.03;;;19.08;100.00
62031;BME280;62035;52.094;5.112;2023-05-23T12:17:44;102444.13;;;19.50;100.00
62031;BME280;62035;52.094;5.112;2023-05-23T12:20:12;102451.16;;;19.03;100.00
62031;BME280;62035;52.094;5.112;2023-05-23T12:22:40;102456.44;;;19.45;100.00
62031;BME280;62035;52.094;5.112;2023-05-23T12:25:08;102452.78;;;19.54;100.00
62031;BME280;62035;52.094;5.112;2023-05-23T12:27:39;102443.78;;;20.49;94.45
62031;BME280;62035;52.094;5.112;2023-05-23T12:30:09;102441.09;;;21.57;82.03
62031;BME280;62035;52.094;5.112;2023-05-23T12:32:38;102444.66;;;22.24;70.34
62031;BME280;62035;52.094;5.112;2023-05-23T12:35:10;102440.78;;;21.89;71.56
62031;BME280;62035;52.094;5.112;2023-05-23T12:37:38;102448.81;;;21.60;76.51
62031;BME280;62035;52.094;5.112;2023-05-23T12:40:14;102468.00;;;21.58;76.71
62031;BME280;62035;52.094;5.112;2023-05-23T12:42:45;102446.84;;;21.08;75.95
62031;BME280;62035;52.094;5.112;2023-05-23T12:45:17;102448.56;;;20.31;78.97
62031;BME280;62035;52.094;5.112;2023-05-23T12:47:44;102458.81;;;19.48;85.58
62031;BME280;62035;52.094;5.112;2023-05-23T12:50:13;102448.50;;;19.19;95.50
62031;BME280;62035;52.094;5.112;2023-05-23T12:52:41;102455.75;;;20.63;84.18
62031;BME280;62035;52.094;5.112;2023-05-23T12:55:09;102450.72;;;20.52;80.47